Detall de PIREP

Printer-friendly versionPDF version

[2009/05/09 11:05:00]
Flight IATA:CT1022
Pilot Number:026
Company ICAO:CAT
Aircraft Type:B75F/E
PAX:0
Departing Airport: LPAZ
Destination Airport: LEBL
Alternate Airport:LEPA
Online: VATSIM
Route:DOKAS 3820N KOMUT UZ20 BUSEN UN870 PONEN UW800 CASPE
Flight Level:FL340
No Slew and time accel
No pause
Crash detect
Detect pilot in Cockpit between each 30 and 45 minutes
11:05 Zero fuel Weight: 196080 Lbs, Fuel Weight: 31893 Lbs
11:05 VATSIM:LPAZ 091100Z 23019KT 8000 -RA FEW014 SCT028 16/14 Q1013
11:05 VATSIM:LEBL 091100Z 09011KT 9999 SCT017 SCT020 19/14 Q1018 NOSIG
11:06 VOICE CATALONIAN / BOEING TRANSPORT
11:11 Parking Brakes off
11:17 Take-off
11:17 Take off Weight: 226850 Lbs
11:17 Wind: 242º @ 019 Knots Heading: 173º
11:17 POS N36º 58´ 16´´ W025º 10´ 14´´
11:17 Flaps:3 at 176 Knots
11:17 Gear Up: 179 Knots
11:18 Flaps:2 at 149 Knots
11:18 Flaps:1 at 188 Knots
11:
19 Flaps:0 at 195 Knots
11:32 Wind:227º@066 Knots Heading: 090º Ground Speed: 470 Knots Altitude 32326 ft
11:33 TOC
11:33 Fuel Weight: 26072 Lb
11:47 Wind:248º@046 Knots Heading: 075º Ground Speed: 520 Knots Altitude 33963 ft
12:02 Wind:276º@013 Knots Heading: 089º Ground Speed: 490 Knots Altitude 34009 ft
12:17 Wind:324º@005 Knots Heading: 090º Ground Speed: 482 Knots Altitude 34015 ft
12:32 Wind:017º@011 Knots Heading: 080º Ground Speed: 471 Knots Altitude 34993 ft
12:47 Wind:009º@013 Knots Heading: 081º Ground Speed: 472 Knots Altitude 34986 ft
13:02 Wind:023º@011 Knots Heading: 064º Ground Speed: 459 Knots Altitude 34983 ft
13:17 Wind:214º@032 Knots Heading: 068º Ground Speed: 496 Knots Altitude 35495 ft
13:32 Wind:240º@047 Knots Heading: 069º Ground Speed: 517 Knots Altitude 36053 ft
13:47 Wind:111º@042 Knots Heading: 079º Ground Speed: 432 Knots Altitude 349
60 ft
13:47 TOD
13:47 Fuel Weight: 7632 Lb
14:02 Wind:139º@019 Knots Heading: 129º Ground Speed: 284 Knots Altitude 11879 ft
14:15 Flaps:1 at 211 Knots
14:15 Flaps:2 at 210 Knots
14:15 Gear Down: 209 Knots
14:15 Flaps:3 at 179 Knots
14:16 Flaps:4 at 160 Knots
14:17 Wind:094º@010 Knots Heading: 067º Ground Speed: 153 Knots Altitude 1115 ft
14:17 Flaps:5 at 157 Knots
14:18 TouchDown:Rate -576 ft/min Speed: 143 Knots
14:18 VATSIM:LEBL 091400Z 09010KT 9999 FEW020 20/14 Q1017 NOSIG
14:18 Land
14:18 Wind:095º@010 Knots
14:18 Heading: 069º
14:18 Flight Duration: 03:01
14:18 Landing Weight: 201345 Lbs
14:18 POS N41º 17´ 50´´ E002º 04´ 47´´
14:25 Parking brakes on
14:25 Block to Block Duration: 03:14
14:25 Final Fuel: 4649 Lbls
14:25 Spent Fuel: 27244 Lbls
14:25 Flight Length: 1345 NM
14:25 TOD Land Length: 153 NM

Exportar CSV

Powered by Drupal - Modified by Danger4k